New River, Tennessee
Current Conditions -  °F | °C
As of 12:56 AM on Sunday 26 Oct 2014 (Local Time) from KEKQ Reporting Station
Moderate Fog Moderate Fog  
Wind Chill: 46°   Ceiling: Unl
Heat Index: 46°   Visibility: 0mi
Dew Point: 46°   Wind: 0mph
Humidity: 100%   Direction: NA
Pressure: 30.01"   Gusts: NA
Location:  36.4337°N, 84.5593°W
Report Text: KEKQ 260456Z AUTO 00000KT M1/4SM FG CLR 08/08 A3001 RMK AO2 T00770077 402270033 SLP168
Loading
Personal Weather Stations






























Interactive Weather Map
Tropical Storm Tracking
New forecast layout! Learn more

10-Day Weather Forecast

Advertisements
Track Severe Weather on mobile